sensor_id;sensor_type;location;lat;lon;timestamp;temperature;humidity
31597;DHT22;18201;50.978;7.034;2023-06-10T06:05:19;18.80;99.90
31597;DHT22;18201;50.978;7.034;2023-06-10T06:05:51;18.80;99.90
31597;DHT22;18201;50.978;7.034;2023-06-10T06:06:22;18.80;99.90
31597;DHT22;18201;50.978;7.034;2023-06-10T06:06:53;18.80;99.90
31597;DHT22;18201;50.978;7.034;2023-06-10T06:07:25;18.80;99.90
31597;DHT22;18201;50.978;7.034;2023-06-10T06:07:56;18.80;99.90
31597;DHT22;18201;50.978;7.034;2023-06-10T06:08:27;18.80;99.90
31597;DHT22;18201;50.978;7.034;2023-06-10T06:08:59;18.90;99.90
31597;DHT22;18201;50.978;7.034;2023-06-10T06:09:30;18.80;99.90
31597;DHT22;18201;50.978;7.034;2023-06-10T06:10:01;18.90;99.90
31597;DHT22;18201;50.978;7.034;2023-06-10T06:10:32;18.90;99.90
31597;DHT22;18201;50.978;7.034;2023-06-10T06:11:04;18.90;99.90
31597;DHT22;18201;50.978;7.034;2023-06-10T06:11:35;19.00;99.90
31597;DHT22;18201;50.978;7.034;2023-06-10T06:12:07;19.00;99.90
31597;DHT22;18201;50.978;7.034;2023-06-10T06:12:39;19.00;99.90
31597;DHT22;18201;50.978;7.034;2023-06-10T06:13:10;19.00;99.90
31597;DHT22;18201;50.978;7.034;2023-06-10T06:13:41;19.10;99.90
31597;DHT22;18201;50.978;7.034;2023-06-10T06:14:12;19.10;99.90
31597;DHT22;18201;50.978;7.034;2023-06-10T06:14:44;19.10;99.90
31597;DHT22;18201;50.978;7.034;2023-06-10T06:15:15;19.10;99.90
31597;DHT22;18201;50.978;7.034;2023-06-10T06:20:02;19.20;99.90
31597;DHT22;18201;50.978;7.034;2023-06-10T06:21:12;19.40;99.90
31597;DHT22;18201;50.978;7.034;2023-06-10T06:21:44;19.40;99.90
31597;DHT22;18201;50.978;7.034;2023-06-10T06:22:16;19.40;99.90
31597;DHT22;18201;50.978;7.034;2023-06-10T06:22:50;19.50;99.90
31597;DHT22;18201;50.978;7.034;2023-06-10T06:23:21;19.50;99.90
31597;DHT22;18201;50.978;7.034;2023-06-10T06:25:11;19.50;99.90
31597;DHT22;18201;50.978;7.034;2023-06-10T06:40:46;20.00;99.90
31597;DHT22;18201;50.978;7.034;2023-06-10T06:41:17;20.10;99.90
31597;DHT22;18201;50.978;7.034;2023-06-10T06:41:48;20.10;99.90
31597;DHT22;18201;50.978;7.034;2023-06-10T06:42:20;20.10;99.90
31597;DHT22;18201;50.978;7.034;2023-06-10T06:42:51;20.10;99.90
31597;DHT22;18201;50.978;7.034;2023-06-10T06:43:23;20.20;99.90
31597;DHT22;18201;50.978;7.034;2023-06-10T06:43:54;20.20;99.90
31597;DHT22;18201;50.978;7.034;2023-06-10T06:44:25;20.20;99.90
31597;DHT22;18201;50.978;7.034;2023-06-10T06:44:57;20.10;99.90
31597;DHT22;18201;50.978;7.034;2023-06-10T06:45:28;20.10;99.90
31597;DHT22;18201;50.978;7.034;2023-06-10T06:45:59;20.20;99.90
31597;DHT22;18201;50.978;7.034;2023-06-10T06:46:30;20.20;99.90
31597;DHT22;18201;50.978;7.034;2023-06-10T06:47:01;20.20;99.90
31597;DHT22;18201;50.978;7.034;2023-06-10T06:47:33;20.20;99.90
31597;DHT22;18201;50.978;7.034;2023-06-10T06:48:05;20.20;99.90
31597;DHT22;18201;50.978;7.034;2023-06-10T06:48:36;20.20;99.90
31597;DHT22;18201;50.978;7.034;2023-06-10T06:49:07;20.20;99.90
31597;DHT22;18201;50.978;7.034;2023-06-10T06:49:39;20.20;99.90
31597;DHT22;18201;50.978;7.034;2023-06-10T06:50:13;20.20;99.90
31597;DHT22;18201;50.978;7.034;2023-06-10T06:50:43;20.20;99.90
31597;DHT22;18201;50.978;7.034;2023-06-10T06:51:15;20.20;99.90
31597;DHT22;18201;50.978;7.034;2023-06-10T06:51:46;20.30;99.90
31597;DHT22;18201;50.978;7.034;2023-06-10T06:52:17;20.30;99.90
31597;DHT22;18201;50.978;7.034;2023-06-10T06:52:50;20.30;99.90
31597;DHT22;18201;50.978;7.034;2023-06-10T06:53:21;20.40;99.90
31597;DHT22;18201;50.978;7.034;2023-06-10T06:53:52;20.40;99.90
31597;DHT22;18201;50.978;7.034;2023-06-10T06:54:27;20.40;99.90
31597;DHT22;18201;50.978;7.034;2023-06-10T06:54:58;20.40;99.90
31597;DHT22;18201;50.978;7.034;2023-06-10T06:55:29;20.40;99.90
31597;DHT22;18201;50.978;7.034;2023-06-10T06:56:02;20.50;99.90
31597;DHT22;18201;50.978;7.034;2023-06-10T06:56:33;20.50;99.90
31597;DHT22;18201;50.978;7.034;2023-06-10T06:57:04;20.50;99.90
31597;DHT22;18201;50.978;7.034;2023-06-10T06:57:39;20.50;99.90
31597;DHT22;18201;50.978;7.034;2023-06-10T06:58:10;20.50;99.90
31597;DHT22;18201;50.978;7.034;2023-06-10T06:58:41;20.50;99.90
31597;DHT22;18201;50.978;7.034;2023-06-10T06:59:13;20.50;99.90
31597;DHT22;18201;50.978;7.034;2023-06-10T06:59:44;20.60;99.90
31597;DHT22;18201;50.978;7.034;2023-06-10T07:00:16;20.60;99.90
31597;DHT22;18201;50.978;7.034;2023-06-10T07:00:48;20.60;99.90
31597;DHT22;18201;50.978;7.034;2023-06-10T07:01:18;20.60;99.90
31597;DHT22;18201;50.978;7.034;2023-06-10T07:02:28;20.70;99.90
31597;DHT22;18201;50.978;7.034;2023-06-10T07:03:19;20.70;99.90
31597;DHT22;18201;50.978;7.034;2023-06-10T07:03:54;20.70;99.90
31597;DHT22;18201;50.978;7.034;2023-06-10T07:04:26;20.70;99.90
31597;DHT22;18201;50.978;7.034;2023-06-10T07:04:59;20.70;99.90
31597;DHT22;18201;50.978;7.034;2023-06-10T07:05:30;20.70;99.90
31597;DHT22;18201;50.978;7.034;2023-06-10T07:06:01;20.60;99.90
31597;DHT22;18201;50.978;7.034;2023-06-10T07:06:33;20.70;99.90
31597;DHT22;18201;50.978;7.034;2023-06-10T07:07:08;20.80;99.90
31597;DHT22;18201;50.978;7.034;2023-06-10T07:07:39;20.80;99.90
31597;DHT22;18201;50.978;7.034;2023-06-10T07:08:11;20.80;99.90
31597;DHT22;18201;50.978;7.034;2023-06-10T07:08:42;20.90;99.90
31597;DHT22;18201;50.978;7.034;2023-06-10T07:09:13;20.90;99.90
31597;DHT22;18201;50.978;7.034;2023-06-10T07:09:45;20.90;99.90
31597;DHT22;18201;50.978;7.034;2023-06-10T07:10:16;21.00;99.90
31597;DHT22;18201;50.978;7.034;2023-06-10T07:10:47;21.00;99.90
31597;DHT22;18201;50.978;7.034;2023-06-10T07:11:22;21.00;99.90
31597;DHT22;18201;50.978;7.034;2023-06-10T07:11:53;21.00;99.90
31597;DHT22;18201;50.978;7.034;2023-06-10T07:12:25;21.00;99.90
31597;DHT22;18201;50.978;7.034;2023-06-10T07:12:57;21.00;99.90
31597;DHT22;18201;50.978;7.034;2023-06-10T07:13:28;21.00;99.90
31597;DHT22;18201;50.978;7.034;2023-06-10T07:13:58;21.00;99.90
31597;DHT22;18201;50.978;7.034;2023-06-10T07:14:30;21.10;99.90
31597;DHT22;18201;50.978;7.034;2023-06-10T07:15:01;21.10;99.90
31597;DHT22;18201;50.978;7.034;2023-06-10T07:15:32;21.10;99.90
31597;DHT22;18201;50.978;7.034;2023-06-10T07:16:04;21.10;99.90
31597;DHT22;18201;50.978;7.034;2023-06-10T07:16:35;21.10;99.90
31597;DHT22;18201;50.978;7.034;2023-06-10T07:17:06;21.10;99.90
31597;DHT22;18201;50.978;7.034;2023-06-10T07:17:38;21.10;99.90
31597;DHT22;18201;50.978;7.034;2023-06-10T07:18:10;21.10;99.90
31597;DHT22;18201;50.978;7.034;2023-06-10T07:18:43;21.10;99.90
31597;DHT22;18201;50.978;7.034;2023-06-10T07:19:18;21.20;99.90
31597;DHT22;18201;50.978;7.034;2023-06-10T07:19:49;21.20;99.90
31597;DHT22;18201;50.978;7.034;2023-06-10T07:20:21;21.20;99.90
31597;DHT22;18201;50.978;7.034;2023-06-10T07:20:53;21.30;99.90
31597;DHT22;18201;50.978;7.034;2023-06-10T07:21:24;21.30;99.90
31597;DHT22;18201;50.978;7.034;2023-06-10T07:21:55;21.30;99.90
31597;DHT22;18201;50.978;7.034;2023-06-10T07:22:27;21.30;99.90
31597;DHT22;18201;50.978;7.034;2023-06-10T07:22:58;21.30;99.90
31597;DHT22;18201;50.978;7.034;2023-06-10T07:23:29;21.30;99.90
31597;DHT22;18201;50.978;7.034;2023-06-10T07:24:01;21.40;99.90
31597;DHT22;18201;50.978;7.034;2023-06-10T07:24:31;21.40;99.90
31597;DHT22;18201;50.978;7.034;2023-06-10T07:25:03;21.40;99.90
31597;DHT22;18201;50.978;7.034;2023-06-10T07:25:35;21.40;99.90
31597;DHT22;18201;50.978;7.034;2023-06-10T07:26:06;21.40;99.90
31597;DHT22;18201;50.978;7.034;2023-06-10T07:26:39;21.40;99.90
31597;DHT22;18201;50.978;7.034;2023-06-10T07:27:11;21.40;99.90
31597;DHT22;18201;50.978;7.034;2023-06-10T07:27:42;21.40;99.90
31597;DHT22;18201;50.978;7.034;2023-06-10T07:28:13;21.50;99.90
31597;DHT22;18201;50.978;7.034;2023-06-10T07:28:45;21.50;99.90
31597;DHT22;18201;50.978;7.034;2023-06-10T07:29:16;21.50;99.90
31597;DHT22;18201;50.978;7.034;2023-06-10T07:29:46;21.50;99.90
31597;DHT22;18201;50.978;7.034;2023-06-10T07:30:18;21.50;99.90
31597;DHT22;18201;50.978;7.034;2023-06-10T07:30:49;21.60;99.90
31597;DHT22;18201;50.978;7.034;2023-06-10T07:31:20;21.60;99.90
31597;DHT22;18201;50.978;7.034;2023-06-10T07:31:52;21.60;99.90
31597;DHT22;18201;50.978;7.034;2023-06-10T07:32:23;21.70;99.90
31597;DHT22;18201;50.978;7.034;2023-06-10T07:32:54;21.70;99.90
31597;DHT22;18201;50.978;7.034;2023-06-10T07:33:26;21.70;99.90
31597;DHT22;18201;50.978;7.034;2023-06-10T07:33:57;21.80;99.90
31597;DHT22;18201;50.978;7.034;2023-06-10T07:34:28;21.90;99.90
31597;DHT22;18201;50.978;7.034;2023-06-10T07:35:00;21.90;99.90
31597;DHT22;18201;50.978;7.034;2023-06-10T07:35:31;21.90;99.90
31597;DHT22;18201;50.978;7.034;2023-06-10T07:36:02;21.80;99.90
31597;DHT22;18201;50.978;7.034;2023-06-10T07:36:34;21.80;99.90
31597;DHT22;18201;50.978;7.034;2023-06-10T07:37:05;21.80;99.90
31597;DHT22;18201;50.978;7.034;2023-06-10T07:37:36;21.80;99.90
31597;DHT22;18201;50.978;7.034;2023-06-10T07:38:08;21.80;99.90
31597;DHT22;18201;50.978;7.034;2023-06-10T07:38:39;21.90;99.90
31597;DHT22;18201;50.978;7.034;2023-06-10T07:39:11;21.90;99.90
31597;DHT22;18201;50.978;7.034;2023-06-10T07:39:43;21.90;99.90
31597;DHT22;18201;50.978;7.034;2023-06-10T07:40:15;21.90;99.90
31597;DHT22;18201;50.978;7.034;2023-06-10T07:40:46;21.90;99.90
31597;DHT22;18201;50.978;7.034;2023-06-10T07:41:18;21.90;99.90
31597;DHT22;18201;50.978;7.034;2023-06-10T07:41:51;21.90;99.90
31597;DHT22;18201;50.978;7.034;2023-06-10T07:42:24;22.00;99.90
31597;DHT22;18201;50.978;7.034;2023-06-10T07:42:56;22.00;99.90
31597;DHT22;18201;50.978;7.034;2023-06-10T07:43:27;22.00;99.90
31597;DHT22;18201;50.978;7.034;2023-06-10T07:43:58;22.00;99.90
31597;DHT22;18201;50.978;7.034;2023-06-10T07:44:29;22.00;99.90
31597;DHT22;18201;50.978;7.034;2023-06-10T07:45:00;22.00;99.90
31597;DHT22;18201;50.978;7.034;2023-06-10T07:45:31;22.00;99.90
31597;DHT22;18201;50.978;7.034;2023-06-10T07:46:03;22.10;99.90
31597;DHT22;18201;50.978;7.034;2023-06-10T07:46:35;22.10;99.90
31597;DHT22;18201;50.978;7.034;2023-06-10T07:47:06;22.10;99.90
31597;DHT22;18201;50.978;7.034;2023-06-10T07:47:38;22.10;99.90
31597;DHT22;18201;50.978;7.034;2023-06-10T07:48:09;22.10;99.90
31597;DHT22;18201;50.978;7.034;2023-06-10T07:48:40;22.10;99.90
31597;DHT22;18201;50.978;7.034;2023-06-10T07:49:11;22.10;99.90
31597;DHT22;18201;50.978;7.034;2023-06-10T07:49:43;22.20;99.90
31597;DHT22;18201;50.978;7.034;2023-06-10T07:51:15;22.20;99.90
31597;DHT22;18201;50.978;7.034;2023-06-10T07:51:47;22.20;99.90
31597;DHT22;18201;50.978;7.034;2023-06-10T07:52:18;22.30;99.90
31597;DHT22;18201;50.978;7.034;2023-06-10T07:52:49;22.20;99.90
31597;DHT22;18201;50.978;7.034;2023-06-10T07:53:20;22.30;99.90
31597;DHT22;18201;50.978;7.034;2023-06-10T07:53:52;22.30;99.90
31597;DHT22;18201;50.978;7.034;2023-06-10T07:54:23;22.30;99.90
31597;DHT22;18201;50.978;7.034;2023-06-10T07:54:54;22.30;99.90
31597;DHT22;18201;50.978;7.034;2023-06-10T07:55:26;22.30;99.90
31597;DHT22;18201;50.978;7.034;2023-06-10T07:55:57;22.40;99.90
31597;DHT22;18201;50.978;7.034;2023-06-10T07:56:27;22.40;99.90
31597;DHT22;18201;50.978;7.034;2023-06-10T07:57:01;22.40;99.90
31597;DHT22;18201;50.978;7.034;2023-06-10T07:57:31;22.50;99.90
31597;DHT22;18201;50.978;7.034;2023-06-10T07:58:05;22.50;99.90
31597;DHT22;18201;50.978;7.034;2023-06-10T07:58:37;22.50;99.90
31597;DHT22;18201;50.978;7.034;2023-06-10T07:59:08;22.50;99.90
31597;DHT22;18201;50.978;7.034;2023-06-10T07:59:39;22.50;99.90
31597;DHT22;18201;50.978;7.034;2023-06-10T08:00:11;22.50;99.90
31597;DHT22;18201;50.978;7.034;2023-06-10T08:00:42;22.50;99.90
31597;DHT22;18201;50.978;7.034;2023-06-10T08:01:14;22.60;99.90
31597;DHT22;18201;50.978;7.034;2023-06-10T08:01:45;22.60;99.90
31597;DHT22;18201;50.978;7.034;2023-06-10T08:02:15;22.60;99.90
31597;DHT22;18201;50.978;7.034;2023-06-10T08:02:47;22.60;99.90
31597;DHT22;18201;50.978;7.034;2023-06-10T08:03:18;22.60;99.90
31597;DHT22;18201;50.978;7.034;2023-06-10T08:03:49;22.60;99.90
31597;DHT22;18201;50.978;7.034;2023-06-10T08:04:21;22.60;99.90
31597;DHT22;18201;50.978;7.034;2023-06-10T08:04:52;22.60;99.90
31597;DHT22;18201;50.978;7.034;2023-06-10T08:05:23;22.60;99.90
31597;DHT22;18201;50.978;7.034;2023-06-10T08:05:54;22.60;99.90
31597;DHT22;18201;50.978;7.034;2023-06-10T08:06:25;22.60;99.90
31597;DHT22;18201;50.978;7.034;2023-06-10T08:06:56;22.60;99.90
31597;DHT22;18201;50.978;7.034;2023-06-10T08:07:28;22.70;99.90
31597;DHT22;18201;50.978;7.034;2023-06-10T08:07:59;22.70;99.90
31597;DHT22;18201;50.978;7.034;2023-06-10T08:08:31;22.70;99.90
31597;DHT22;18201;50.978;7.034;2023-06-10T08:09:02;22.80;99.90
31597;DHT22;18201;50.978;7.034;2023-06-10T08:09:33;22.80;99.90
31597;DHT22;18201;50.978;7.034;2023-06-10T08:10:06;22.90;99.90
31597;DHT22;18201;50.978;7.034;2023-06-10T08:10:37;22.90;99.90
31597;DHT22;18201;50.978;7.034;2023-06-10T08:11:08;23.00;99.90
31597;DHT22;18201;50.978;7.034;2023-06-10T08:11:40;23.00;99.90
31597;DHT22;18201;50.978;7.034;2023-06-10T08:12:12;23.10;99.90
31597;DHT22;18201;50.978;7.034;2023-06-10T08:12:44;23.10;99.90
31597;DHT22;18201;50.978;7.034;2023-06-10T08:13:15;23.10;99.90
31597;DHT22;18201;50.978;7.034;2023-06-10T08:13:46;23.10;99.90
31597;DHT22;18201;50.978;7.034;2023-06-10T08:14:18;23.10;99.90
31597;DHT22;18201;50.978;7.034;2023-06-10T08:14:49;23.10;99.90
31597;DHT22;18201;50.978;7.034;2023-06-10T08:15:20;23.20;99.90
31597;DHT22;18201;50.978;7.034;2023-06-10T08:15:52;23.20;99.90
31597;DHT22;18201;50.978;7.034;2023-06-10T08:16:25;23.20;99.90
31597;DHT22;18201;50.978;7.034;2023-06-10T08:16:56;23.20;99.90
31597;DHT22;18201;50.978;7.034;2023-06-10T08:17:28;23.20;99.90
31597;DHT22;18201;50.978;7.034;2023-06-10T08:17:58;23.20;99.90
31597;DHT22;18201;50.978;7.034;2023-06-10T08:18:29;23.20;99.90
31597;DHT22;18201;50.978;7.034;2023-06-10T08:19:01;23.20;99.90
31597;DHT22;18201;50.978;7.034;2023-06-10T08:19:32;23.20;99.90
31597;DHT22;18201;50.978;7.034;2023-06-10T08:20:04;23.30;99.90
31597;DHT22;18201;50.978;7.034;2023-06-10T08:20:36;23.30;99.90
31597;DHT22;18201;50.978;7.034;2023-06-10T08:21:07;23.30;99.90
31597;DHT22;18201;50.978;7.034;2023-06-10T08:21:38;23.30;99.90
31597;DHT22;18201;50.978;7.034;2023-06-10T08:22:10;23.40;99.80
31597;DHT22;18201;50.978;7.034;2023-06-10T08:22:41;23.40;98.90
31597;DHT22;18201;50.978;7.034;2023-06-10T08:23:14;23.40;99.10
31597;DHT22;18201;50.978;7.034;2023-06-10T08:23:44;23.40;99.20
31597;DHT22;18201;50.978;7.034;2023-06-10T08:24:15;23.50;99.10
31597;DHT22;18201;50.978;7.034;2023-06-10T08:24:49;23.50;99.20
31597;DHT22;18201;50.978;7.034;2023-06-10T08:25:20;23.50;99.40
31597;DHT22;18201;50.978;7.034;2023-06-10T08:25:52;23.50;99.40
31597;DHT22;18201;50.978;7.034;2023-06-10T08:26:24;23.50;99.40
31597;DHT22;18201;50.978;7.034;2023-06-10T08:26:55;23.50;98.90
31597;DHT22;18201;50.978;7.034;2023-06-10T08:27:28;23.60;98.50
31597;DHT22;18201;50.978;7.034;2023-06-10T08:28:00;23.60;98.00
31597;DHT22;18201;50.978;7.034;2023-06-10T08:28:31;23.60;98.50
31597;DHT22;18201;50.978;7.034;2023-06-10T08:29:02;23.70;98.90
31597;DHT22;18201;50.978;7.034;2023-06-10T08:29:34;23.60;99.80
31597;DHT22;18201;50.978;7.034;2023-06-10T08:30:06;23.70;99.60
31597;DHT22;18201;50.978;7.034;2023-06-10T08:30:38;23.70;98.80
31597;DHT22;18201;50.978;7.034;2023-06-10T08:31:09;23.80;98.20
31597;DHT22;18201;50.978;7.034;2023-06-10T08:31:41;23.80;96.90
31597;DHT22;18201;50.978;7.034;2023-06-10T08:32:14;23.80;97.10
31597;DHT22;18201;50.978;7.034;2023-06-10T08:32:45;23.80;96.20
31597;DHT22;18201;50.978;7.034;2023-06-10T08:33:15;23.80;96.70
31597;DHT22;18201;50.978;7.034;2023-06-10T08:33:47;23.80;96.70
31597;DHT22;18201;50.978;7.034;2023-06-10T08:34:18;23.80;96.60
31597;DHT22;18201;50.978;7.034;2023-06-10T08:34:49;23.80;96.60
31597;DHT22;18201;50.978;7.034;2023-06-10T08:35:21;23.90;97.10
31597;DHT22;18201;50.978;7.034;2023-06-10T08:35:52;23.90;96.10
31597;DHT22;18201;50.978;7.034;2023-06-10T08:36:22;24.00;96.20
31597;DHT22;18201;50.978;7.034;2023-06-10T08:36:54;24.00;96.60
31597;DHT22;18201;50.978;7.034;2023-06-10T08:37:26;24.00;96.70
31597;DHT22;18201;50.978;7.034;2023-06-10T08:37:57;23.90;95.30
31597;DHT22;18201;50.978;7.034;2023-06-10T08:38:29;24.00;94.30
31597;DHT22;18201;50.978;7.034;2023-06-10T08:39:00;24.00;94.20
31597;DHT22;18201;50.978;7.034;2023-06-10T08:39:30;24.00;94.30
31597;DHT22;18201;50.978;7.034;2023-06-10T08:40:03;24.00;94.30
31597;DHT22;18201;50.978;7.034;2023-06-10T08:40:34;24.00;94.00
31597;DHT22;18201;50.978;7.034;2023-06-10T08:41:06;24.10;93.70
31597;DHT22;18201;50.978;7.034;2023-06-10T08:41:43;24.10;93.60
31597;DHT22;18201;50.978;7.034;2023-06-10T08:42:22;24.10;93.60
31597;DHT22;18201;50.978;7.034;2023-06-10T08:43:00;24.10;93.80
31597;DHT22;18201;50.978;7.034;2023-06-10T08:43:39;24.20;93.40
31597;DHT22;18201;50.978;7.034;2023-06-10T08:44:16;24.10;93.40
31597;DHT22;18201;50.978;7.034;2023-06-10T08:44:53;24.10;93.00
31597;DHT22;18201;50.978;7.034;2023-06-10T08:45:24;24.10;92.90
31597;DHT22;18201;50.978;7.034;2023-06-10T08:46:01;24.20;93.00
31597;DHT22;18201;50.978;7.034;2023-06-10T08:46:33;24.20;92.90
31597;DHT22;18201;50.978;7.034;2023-06-10T08:47:10;24.20;92.50
31597;DHT22;18201;50.978;7.034;2023-06-10T08:47:45;24.20;92.10
31597;DHT22;18201;50.978;7.034;2023-06-10T08:48:19;24.30;92.00
31597;DHT22;18201;50.978;7.034;2023-06-10T08:48:53;24.30;91.90
31597;DHT22;18201;50.978;7.034;2023-06-10T08:49:27;24.40;91.40
31597;DHT22;18201;50.978;7.034;2023-06-10T08:50:03;24.40;91.10
31597;DHT22;18201;50.978;7.034;2023-06-10T08:50:36;24.50;90.70
31597;DHT22;18201;50.978;7.034;2023-06-10T08:51:10;24.50;90.80
31597;DHT22;18201;50.978;7.034;2023-06-10T08:51:41;24.50;90.20
31597;DHT22;18201;50.978;7.034;2023-06-10T08:52:15;24.50;90.10
31597;DHT22;18201;50.978;7.034;2023-06-10T08:52:48;24.50;90.30
31597;DHT22;18201;50.978;7.034;2023-06-10T08:53:21;24.60;90.60
31597;DHT22;18201;50.978;7.034;2023-06-10T08:54:01;24.60;90.50
31597;DHT22;18201;50.978;7.034;2023-06-10T08:54:34;24.60;90.80
31597;DHT22;18201;50.978;7.034;2023-06-10T08:55:11;24.60;90.70
31597;DHT22;18201;50.978;7.034;2023-06-10T08:55:45;24.60;90.90
31597;DHT22;18201;50.978;7.034;2023-06-10T08:56:17;24.60;91.30
31597;DHT22;18201;50.978;7.034;2023-06-10T08:56:49;24.60;91.30
31597;DHT22;18201;50.978;7.034;2023-06-10T08:57:22;24.60;91.20
31597;DHT22;18201;50.978;7.034;2023-06-10T08:57:53;24.70;90.70
31597;DHT22;18201;50.978;7.034;2023-06-10T08:58:27;24.70;90.40
31597;DHT22;18201;50.978;7.034;2023-06-10T08:58:59;24.80;90.20
31597;DHT22;18201;50.978;7.034;2023-06-10T08:59:31;24.80;88.90
31597;DHT22;18201;50.978;7.034;2023-06-10T09:00:03;24.80;88.80
31597;DHT22;18201;50.978;7.034;2023-06-10T09:00:35;24.80;88.70
31597;DHT22;18201;50.978;7.034;2023-06-10T09:01:06;24.80;88.40
31597;DHT22;18201;50.978;7.034;2023-06-10T09:01:38;24.80;88.50
31597;DHT22;18201;50.978;7.034;2023-06-10T09:02:10;24.90;88.30
31597;DHT22;18201;50.978;7.034;2023-06-10T09:02:42;24.90;86.10
31597;DHT22;18201;50.978;7.034;2023-06-10T09:03:13;25.00;84.70
31597;DHT22;18201;50.978;7.034;2023-06-10T09:03:46;25.00;85.10
31597;DHT22;18201;50.978;7.034;2023-06-10T09:04:16;25.00;83.90
31597;DHT22;18201;50.978;7.034;2023-06-10T09:04:49;25.00;83.90
31597;DHT22;18201;50.978;7.034;2023-06-10T09:05:22;25.00;84.10
31597;DHT22;18201;50.978;7.034;2023-06-10T09:05:53;25.00;84.30
31597;DHT22;18201;50.978;7.034;2023-06-10T09:06:25;25.00;83.20
31597;DHT22;18201;50.978;7.034;2023-06-10T09:06:57;25.00;82.20
31597;DHT22;18201;50.978;7.034;2023-06-10T09:07:30;25.00;81.40
31597;DHT22;18201;50.978;7.034;2023-06-10T09:08:06;25.10;82.00
31597;DHT22;18201;50.978;7.034;2023-06-10T09:08:37;25.00;80.60
31597;DHT22;18201;50.978;7.034;2023-06-10T09:09:11;25.10;80.00
31597;DHT22;18201;50.978;7.034;2023-06-10T09:09:43;25.10;78.80
31597;DHT22;18201;50.978;7.034;2023-06-10T09:10:15;25.10;78.50
31597;DHT22;18201;50.978;7.034;2023-06-10T09:10:47;25.10;78.80
31597;DHT22;18201;50.978;7.034;2023-06-10T09:11:18;25.20;78.00
31597;DHT22;18201;50.978;7.034;2023-06-10T09:11:49;25.20;77.80
31597;DHT22;18201;50.978;7.034;2023-06-10T09:12:21;25.20;79.00
31597;DHT22;18201;50.978;7.034;2023-06-10T09:12:52;25.20;79.80
31597;DHT22;18201;50.978;7.034;2023-06-10T09:13:23;25.30;78.70
31597;DHT22;18201;50.978;7.034;2023-06-10T09:13:56;25.40;78.60
31597;DHT22;18201;50.978;7.034;2023-06-10T09:14:27;25.30;77.70
31597;DHT22;18201;50.978;7.034;2023-06-10T09:14:58;25.40;77.80
31597;DHT22;18201;50.978;7.034;2023-06-10T09:15:30;25.40;77.80
31597;DHT22;18201;50.978;7.034;2023-06-10T09:16:01;25.50;77.70
31597;DHT22;18201;50.978;7.034;2023-06-10T09:16:32;25.50;77.20
31597;DHT22;18201;50.978;7.034;2023-06-10T09:17:05;25.60;77.20
31597;DHT22;18201;50.978;7.034;2023-06-10T09:17:37;25.60;77.70
31597;DHT22;18201;50.978;7.034;2023-06-10T09:18:08;25.60;77.70
31597;DHT22;18201;50.978;7.034;2023-06-10T09:18:39;25.60;77.90
31597;DHT22;18201;50.978;7.034;2023-06-10T09:19:11;25.70;78.60
31597;DHT22;18201;50.978;7.034;2023-06-10T09:19:44;25.70;77.40
31597;DHT22;18201;50.978;7.034;2023-06-10T09:20:15;25.80;76.60
31597;DHT22;18201;50.978;7.034;2023-06-10T09:20:47;25.70;76.60
31597;DHT22;18201;50.978;7.034;2023-06-10T09:21:22;25.80;76.20
31597;DHT22;18201;50.978;7.034;2023-06-10T09:21:53;25.80;75.70
31597;DHT22;18201;50.978;7.034;2023-06-10T09:22:28;25.80;74.40
31597;DHT22;18201;50.978;7.034;2023-06-10T09:22:59;25.80;74.60
31597;DHT22;18201;50.978;7.034;2023-06-10T09:23:31;25.80;74.50
31597;DHT22;18201;50.978;7.034;2023-06-10T09:24:04;25.80;74.80
31597;DHT22;18201;50.978;7.034;2023-06-10T09:24:36;25.90;75.30
31597;DHT22;18201;50.978;7.034;2023-06-10T09:25:11;25.90;75.40
31597;DHT22;18201;50.978;7.034;2023-06-10T09:25:42;26.00;75.90
31597;DHT22;18201;50.978;7.034;2023-06-10T09:26:14;25.90;74.00
31597;DHT22;18201;50.978;7.034;2023-06-10T09:26:45;26.00;72.60
31597;DHT22;18201;50.978;7.034;2023-06-10T09:27:16;26.00;72.70
31597;DHT22;18201;50.978;7.034;2023-06-10T09:27:49;26.00;72.30
31597;DHT22;18201;50.978;7.034;2023-06-10T09:28:20;26.10;71.60
31597;DHT22;18201;50.978;7.034;2023-06-10T09:28:51;26.10;70.50
31597;DHT22;18201;50.978;7.034;2023-06-10T09:29:24;26.20;71.10
31597;DHT22;18201;50.978;7.034;2023-06-10T09:29:55;26.20;70.90
31597;DHT22;18201;50.978;7.034;2023-06-10T09:30:29;26.20;70.50
31597;DHT22;18201;50.978;7.034;2023-06-10T09:31:03;26.30;72.20
31597;DHT22;18201;50.978;7.034;2023-06-10T09:31:35;26.30;72.50
31597;DHT22;18201;50.978;7.034;2023-06-10T09:32:07;26.40;72.50
31597;DHT22;18201;50.978;7.034;2023-06-10T09:32:38;26.40;71.20
31597;DHT22;18201;50.978;7.034;2023-06-10T09:33:11;26.40;69.70
31597;DHT22;18201;50.978;7.034;2023-06-10T09:33:44;26.50;68.10
31597;DHT22;18201;50.978;7.034;2023-06-10T09:34:15;26.50;66.70
31597;DHT22;18201;50.978;7.034;2023-06-10T09:34:48;26.50;66.30
31597;DHT22;18201;50.978;7.034;2023-06-10T09:35:21;26.60;66.20
31597;DHT22;18201;50.978;7.034;2023-06-10T09:35:52;26.60;66.10
31597;DHT22;18201;50.978;7.034;2023-06-10T09:36:26;26.60;66.40
31597;DHT22;18201;50.978;7.034;2023-06-10T09:36:57;26.60;66.40
31597;DHT22;18201;50.978;7.034;2023-06-10T09:37:28;26.70;66.50
31597;DHT22;18201;50.978;7.034;2023-06-10T09:38:01;26.70;65.80
31597;DHT22;18201;50.978;7.034;2023-06-10T09:38:33;26.70;65.30
31597;DHT22;18201;50.978;7.034;2023-06-10T09:39:05;26.70;64.30
31597;DHT22;18201;50.978;7.034;2023-06-10T09:39:37;26.70;64.80
31597;DHT22;18201;50.978;7.034;2023-06-10T09:40:08;26.80;64.80
31597;DHT22;18201;50.978;7.034;2023-06-10T09:40:49;26.80;64.00
31597;DHT22;18201;50.978;7.034;2023-06-10T09:41:23;26.80;64.40
31597;DHT22;18201;50.978;7.034;2023-06-10T09:42:02;26.90;64.20
31597;DHT22;18201;50.978;7.034;2023-06-10T09:42:46;26.90;64.70
31597;DHT22;18201;50.978;7.034;2023-06-10T09:43:38;26.90;64.90
31597;DHT22;18201;50.978;7.034;2023-06-10T09:44:12;27.00;65.50
31597;DHT22;18201;50.978;7.034;2023-06-10T09:44:50;27.20;66.30
31597;DHT22;18201;50.978;7.034;2023-06-10T09:45:22;27.20;64.50
31597;DHT22;18201;50.978;7.034;2023-06-10T09:45:56;27.20;64.50
31597;DHT22;18201;50.978;7.034;2023-06-10T09:46:30;27.30;63.30
31597;DHT22;18201;50.978;7.034;2023-06-10T09:47:02;27.30;63.40
31597;DHT22;18201;50.978;7.034;2023-06-10T09:47:34;27.40;63.20
31597;DHT22;18201;50.978;7.034;2023-06-10T09:48:05;27.50;64.00
31597;DHT22;18201;50.978;7.034;2023-06-10T09:48:41;27.50;63.80
31597;DHT22;18201;50.978;7.034;2023-06-10T09:49:14;27.60;63.90
31597;DHT22;18201;50.978;7.034;2023-06-10T09:49:45;27.70;64.10
31597;DHT22;18201;50.978;7.034;2023-06-10T09:50:16;27.70;64.20
31597;DHT22;18201;50.978;7.034;2023-06-10T09:50:48;27.80;63.80